Time;durP1;ratioP1;P1;durP2;ratioP2;P2;SDS_P1;SDS_P2;PMS_P1;PMS_P2;Temp;Humidity;BMP_temperature;BMP_pressure;BME280_temperature;BME280_humidity;BME280_pressure;Samples;Min_cycle;Max_cycle;Signal;HPM_P1;HPM_P2
2023/05/04 00:00:36;;;;;;;30.67;27.88;;;12.80;99.90;;;;;;5291672;28;20015;-72
2023/05/04 00:03:07;;;;;;;34.22;31.13;;;12.70;99.90;;;;;;5291617;28;20489;-74
2023/05/04 00:05:38;;;;;;;34.67;31.88;;;12.70;99.90;;;;;;5291307;28;20031;-72
2023/05/04 00:08:09;;;;;;;32.03;29.33;;;12.90;99.90;;;;;;5291056;28;20489;-73
2023/05/04 00:10:40;;;;;;;32.47;29.70;;;12.90;99.90;;;;;;5291406;28;20031;-71
2023/05/04 00:13:11;;;;;;;35.67;32.58;;;13.00;99.90;;;;;;5290483;28;20019;-71
2023/05/04 00:15:41;;;;;;;36.13;32.90;;;12.90;99.90;;;;;;5291326;28;20371;-71
2023/05/04 00:18:12;;;;;;;32.42;29.33;;;12.70;99.90;;;;;;5291361;28;20088;-71
2023/05/04 00:20:43;;;;;;;32.20;29.40;;;12.90;99.90;;;;;;5291386;28;20019;-71
2023/05/04 00:23:14;;;;;;;35.17;32.10;;;12.80;99.90;;;;;;5291227;28;20096;-74
2023/05/04 00:25:45;;;;;;;31.88;29.08;;;12.80;99.90;;;;;;5290990;28;20067;-73
2023/05/04 00:28:16;;;;;;;32.63;29.98;;;12.70;99.90;;;;;;5291464;28;20055;-71
2023/05/04 00:30:46;;;;;;;32.35;29.38;;;12.80;99.90;;;;;;5291453;28;20107;-72
2023/05/04 00:33:17;;;;;;;33.88;29.58;;;12.70;99.90;;;;;;5272865;28;20026;-71
2023/05/04 00:35:48;;;;;;;28.10;25.67;;;12.60;99.90;;;;;;5290726;28;20030;-71
2023/05/04 00:38:19;;;;;;;30.13;27.42;;;12.70;99.90;;;;;;5290980;28;20555;-72
2023/05/04 00:40:50;;;;;;;29.88;27.13;;;12.90;99.90;;;;;;5290746;28;20124;-73
2023/05/04 00:43:21;;;;;;;27.83;25.25;;;12.70;99.90;;;;;;5290779;28;20047;-73
2023/05/04 00:45:52;;;;;;;28.70;26.10;;;12.70;99.90;;;;;;5290813;28;20057;-72
2023/05/04 00:48:22;;;;;;;29.08;26.60;;;12.80;99.90;;;;;;5290753;28;20020;-72
2023/05/04 00:50:53;;;;;;;27.05;24.42;;;12.90;99.90;;;;;;5290618;28;20020;-73
2023/05/04 00:53:24;;;;;;;26.98;24.27;;;12.80;99.90;;;;;;5290474;28;20069;-73
2023/05/04 00:55:55;;;;;;;28.15;25.60;;;12.70;99.90;;;;;;5290751;28;20036;-73
2023/05/04 00:58:26;;;;;;;28.88;25.83;;;12.80;99.90;;;;;;5290811;28;20023;-73
2023/05/04 01:00:57;;;;;;;30.45;27.63;;;12.70;99.90;;;;;;5290509;28;20023;-72
2023/05/04 01:03:28;;;;;;;28.08;25.58;;;12.60;99.90;;;;;;5290477;28;20028;-72
2023/05/04 01:06:18;;;;;;;30.58;27.58;;;12.80;99.90;;;;;;5290241;28;20037;-73
2023/05/04 01:09:15;;;;;;;29.30;25.35;;;12.70;99.90;;;;;;5290582;28;20047;-71
2023/05/04 01:12:04;;;;;;;31.83;28.88;;;12.70;99.90;;;;;;5290279;28;20036;-72
2023/05/04 01:14:36;;;;;;;32.58;29.38;;;12.60;99.90;;;;;;5290034;28;20028;-73
2023/05/04 01:17:07;;;;;;;31.65;28.77;;;12.50;99.90;;;;;;5290070;28;20084;-72
2023/05/04 01:19:38;;;;;;;30.55;27.77;;;12.70;99.90;;;;;;5290030;28;20024;-72
2023/05/04 01:22:08;;;;;;;31.15;28.35;;;12.80;99.90;;;;;;5290001;28;20034;-72
2023/05/04 01:24:39;;;;;;;30.13;27.13;;;12.70;99.90;;;;;;5288660;28;20039;-72
2023/05/04 01:27:23;;;;;;;28.80;26.30;;;12.80;99.90;;;;;;5289921;28;20023;-72
2023/05/04 01:30:04;;;;;;;31.02;28.23;;;12.70;99.90;;;;;;5289774;28;20083;-72
2023/05/04 01:32:36;;;;;;;31.15;28.25;;;12.70;99.90;;;;;;5289626;28;20032;-72
2023/05/04 01:35:07;;;;;;;29.08;26.20;;;12.70;99.90;;;;;;5289715;28;20026;-72
2023/05/04 01:37:38;;;;;;;28.70;26.08;;;12.80;99.90;;;;;;5289692;28;20075;-72
2023/05/04 01:40:10;;;;;;;28.95;26.17;;;12.90;99.90;;;;;;5289652;28;20098;-72
2023/05/04 01:42:41;;;;;;;27.33;24.63;;;12.80;99.90;;;;;;5271215;28;20031;-73
2023/05/04 01:45:12;;;;;;;28.15;25.70;;;12.70;99.90;;;;;;5270642;28;20032;-73
2023/05/04 01:47:43;;;;;;;26.23;23.75;;;12.80;99.90;;;;;;5289182;28;20174;-72
2023/05/04 01:50:14;;;;;;;27.67;25.27;;;12.60;99.90;;;;;;5289424;28;20139;-73
2023/05/04 01:52:44;;;;;;;26.63;24.33;;;12.80;99.90;;;;;;5271293;28;20391;-72
2023/05/04 01:55:15;;;;;;;27.83;25.08;;;12.90;99.90;;;;;;5289160;28;20134;-73
2023/05/04 01:57:46;;;;;;;25.65;23.45;;;12.80;99.90;;;;;;5289318;28;20080;-73
2023/05/04 02:00:17;;;;;;;24.02;21.80;;;12.70;99.90;;;;;;5289254;28;20023;-72
2023/05/04 02:02:48;;;;;;;24.13;22.13;;;12.70;99.90;;;;;;5289325;28;20020;-72
2023/05/04 02:05:19;;;;;;;22.00;20.10;;;12.70;99.90;;;;;;5289025;28;20486;-72
2023/05/04 02:07:49;;;;;;;25.50;23.60;;;12.70;99.90;;;;;;5288987;28;20027;-73
2023/05/04 02:10:20;;;;;;;25.48;23.52;;;12.60;99.90;;;;;;5288650;28;20487;-73
2023/05/04 02:12:51;;;;;;;24.25;22.38;;;12.70;99.90;;;;;;5288930;28;20028;-73
2023/05/04 02:15:22;;;;;;;26.33;24.00;;;12.70;99.90;;;;;;5270738;28;20035;-73
2023/05/04 02:17:53;;;;;;;25.92;23.88;;;12.50;99.90;;;;;;5288843;28;20024;-73
2023/05/04 02:20:24;;;;;;;25.58;23.63;;;12.80;99.90;;;;;;5288901;28;20061;-71
2023/05/04 02:22:55;;;;;;;24.58;22.63;;;12.80;99.90;;;;;;5288728;28;20031;-71
2023/05/04 02:25:25;;;;;;;27.33;24.85;;;12.70;99.90;;;;;;5288717;28;20040;-73
2023/05/04 02:27:56;;;;;;;25.08;23.08;;;12.70;99.90;;;;;;5288801;28;20026;-73
2023/05/04 02:30:27;;;;;;;25.55;23.23;;;12.70;99.90;;;;;;5288828;28;20364;-73
2023/05/04 02:32:58;;;;;;;24.65;22.60;;;12.70;99.90;;;;;;5288705;28;20016;-73
2023/05/04 02:35:29;;;;;;;27.55;25.00;;;12.70;99.90;;;;;;5288269;28;20031;-73
2023/05/04 02:38:00;;;;;;;26.80;24.67;;;12.80;99.90;;;;;;5288727;28;20020;-73
2023/05/04 02:40:31;;;;;;;25.77;24.02;;;12.70;99.90;;;;;;5288580;28;20057;-73
2023/05/04 02:43:02;;;;;;;26.50;24.50;;;12.60;99.90;;;;;;5270160;28;20055;-73
2023/05/04 02:45:34;;;;;;;26.67;24.10;;;12.60;99.90;;;;;;5288167;28;20043;-73
2023/05/04 02:48:04;;;;;;;24.35;22.55;;;12.70;99.90;;;;;;5288616;28;20028;-71
2023/05/04 02:50:36;;;;;;;27.45;25.20;;;12.60;99.90;;;;;;5288444;28;20031;-73
2023/05/04 02:53:07;;;;;;;27.33;24.83;;;12.50;99.90;;;;;;5288326;28;20026;-73
2023/05/04 02:55:38;;;;;;;25.13;23.23;;;12.50;99.90;;;;;;5288208;28;20039;-72
2023/05/04 02:58:10;;;;;;;25.75;23.73;;;12.60;99.90;;;;;;5289097;28;20047;-73
2023/05/04 03:00:41;;;;;;;28.50;26.00;;;12.50;99.90;;;;;;5288473;28;20501;-73
2023/05/04 03:03:12;;;;;;;26.17;24.08;;;12.40;99.90;;;;;;5288168;28;20440;-73
2023/05/04 03:05:42;;;;;;;27.58;25.45;;;12.50;99.90;;;;;;5270015;28;20457;-73
2023/05/04 03:08:13;;;;;;;27.05;24.90;;;12.50;99.90;;;;;;5288394;28;20020;-73
2023/05/04 03:10:44;;;;;;;27.67;25.15;;;12.50;99.90;;;;;;5288365;28;20099;-73
2023/05/04 03:13:15;;;;;;;27.85;25.60;;;12.40;99.90;;;;;;5288223;28;20753;-72
2023/05/04 03:15:46;;;;;;;26.63;24.42;;;12.50;99.90;;;;;;5270187;28;20019;-73
2023/05/04 03:18:16;;;;;;;29.05;26.75;;;12.40;99.90;;;;;;5288276;28;20059;-73
2023/05/04 03:20:47;;;;;;;30.98;28.55;;;12.50;99.90;;;;;;5269971;28;20042;-72
2023/05/04 03:23:18;;;;;;;29.58;27.10;;;12.50;99.90;;;;;;5287950;28;20391;-73
2023/05/04 03:25:49;;;;;;;34.15;31.35;;;12.40;99.90;;;;;;5269511;28;20122;-73
2023/05/04 03:28:20;;;;;;;35.05;32.10;;;12.40;99.90;;;;;;5269931;28;20050;-73
2023/05/04 03:30:51;;;;;;;33.65;31.08;;;12.40;99.90;;;;;;5288253;28;20027;-73
2023/05/04 03:33:22;;;;;;;31.85;29.17;;;12.50;99.90;;;;;;5287904;28;20111;-73
2023/05/04 03:35:53;;;;;;;36.67;33.00;;;12.50;99.90;;;;;;5269662;28;20016;-73
2023/05/04 03:38:23;;;;;;;35.58;32.22;;;12.40;99.90;;;;;;5287755;28;20027;-73
2023/05/04 03:40:55;;;;;;;31.70;29.20;;;12.50;99.90;;;;;;5287796;28;20024;-73
2023/05/04 03:43:26;;;;;;;32.22;29.90;;;12.50;99.90;;;;;;5287947;28;20020;-73
2023/05/04 03:45:56;;;;;;;32.60;30.30;;;12.60;99.90;;;;;;5269330;28;20034;-72
2023/05/04 03:48:27;;;;;;;29.20;26.85;;;12.60;99.90;;;;;;5290514;28;20077;-73
2023/05/04 03:50:58;;;;;;;30.60;28.50;;;12.60;99.90;;;;;;5291971;28;20028;-73
2023/05/04 03:53:29;;;;;;;29.65;27.60;;;12.50;99.90;;;;;;5273218;28;20032;-72
2023/05/04 03:56:01;;;;;;;30.35;28.10;;;12.50;99.90;;;;;;5291847;28;20055;-73
2023/05/04 03:58:31;;;;;;;32.63;30.23;;;12.50;99.90;;;;;;5291707;28;20024;-72
2023/05/04 04:01:02;;;;;;;34.17;31.63;;;12.40;99.90;;;;;;5291723;28;20028;-73
2023/05/04 04:03:35;;;;;;;32.90;30.65;;;12.40;99.90;;;;;;5291701;28;20019;-72
2023/05/04 04:06:08;;;;;;;30.67;28.55;;;12.50;99.90;;;;;;5291893;28;20043;-72
2023/05/04 04:08:39;;;;;;;34.80;32.47;;;12.50;99.90;;;;;;5291649;28;20048;-73
2023/05/04 04:11:10;;;;;;;29.55;27.63;;;12.60;99.90;;;;;;5291436;28;20066;-73
2023/05/04 04:13:40;;;;;;;31.27;29.27;;;12.60;99.90;;;;;;5272681;28;20031;-73
2023/05/04 04:16:11;;;;;;;32.97;30.67;;;12.50;99.90;;;;;;5291589;28;20460;-72
2023/05/04 04:18:42;;;;;;;29.80;27.42;;;12.60;99.90;;;;;;5291289;28;20024;-72
2023/05/04 04:21:13;;;;;;;31.48;29.38;;;12.50;99.90;;;;;;5272955;28;20467;-72
2023/05/04 04:23:43;;;;;;;32.28;29.88;;;12.50;99.90;;;;;;5291107;28;20074;-73
2023/05/04 04:26:14;;;;;;;32.92;30.50;;;12.50;99.90;;;;;;5290742;28;20043;-72
2023/05/04 04:28:49;;;;;;;32.28;29.95;;;12.50;99.90;;;;;;5291445;28;20019;-73
2023/05/04 04:31:20;;;;;;;34.90;32.22;;;12.60;99.90;;;;;;5291058;28;20038;-73
2023/05/04 04:33:51;;;;;;;31.77;29.40;;;12.60;99.90;;;;;;5291099;28;20390;-73
2023/05/04 04:36:22;;;;;;;33.42;31.02;;;12.50;99.90;;;;;;5291008;28;20034;-73
2023/05/04 04:38:53;;;;;;;32.50;30.20;;;12.60;99.90;;;;;;5290801;28;20015;-73
2023/05/04 04:41:23;;;;;;;34.33;31.75;;;12.60;99.90;;;;;;5290716;28;20467;-73
2023/05/04 04:43:54;;;;;;;34.08;31.58;;;12.50;99.90;;;;;;5290559;28;20501;-73
2023/05/04 04:46:26;;;;;;;32.80;30.30;;;12.60;99.90;;;;;;5272383;28;20031;-73
2023/05/04 04:48:57;;;;;;;35.15;32.55;;;12.60;99.90;;;;;;5290729;28;20356;-71
2023/05/04 04:51:28;;;;;;;32.38;30.17;;;12.70;99.90;;;;;;5290700;28;20032;-71
2023/05/04 04:53:59;;;;;;;32.22;29.73;;;12.60;99.90;;;;;;5290595;28;20047;-71
2023/05/04 04:56:30;;;;;;;32.22;30.00;;;12.80;99.90;;;;;;5290636;28;20020;-73
2023/05/04 04:59:00;;;;;;;35.00;32.60;;;12.50;99.90;;;;;;5290298;28;20032;-73
2023/05/04 05:01:32;;;;;;;34.88;32.17;;;12.70;99.90;;;;;;5290699;28;20061;-73
2023/05/04 05:04:03;;;;;;;32.90;30.50;;;12.90;99.90;;;;;;5272004;28;20499;-73
2023/05/04 05:06:35;;;;;;;29.27;26.98;;;12.90;99.90;;;;;;5290331;28;20028;-73
2023/05/04 05:09:06;;;;;;;29.20;26.70;;;12.90;99.90;;;;;;5290230;28;20107;-73
2023/05/04 05:11:37;;;;;;;29.95;27.55;;;12.80;99.90;;;;;;5272040;28;20111;-73
2023/05/04 05:14:07;;;;;;;34.38;31.95;;;12.80;99.90;;;;;;5290561;28;20023;-73
2023/05/04 05:16:38;;;;;;;33.60;30.98;;;12.70;99.90;;;;;;5290196;28;20028;-73
2023/05/04 05:19:09;;;;;;;30.27;27.60;;;12.80;99.90;;;;;;5271778;28;20027;-73
2023/05/04 05:21:40;;;;;;;31.15;28.55;;;12.80;99.90;;;;;;5289999;28;20027;-73
2023/05/04 05:24:11;;;;;;;30.00;27.63;;;12.70;99.90;;;;;;5289682;28;20488;-73
2023/05/04 05:26:41;;;;;;;33.22;30.70;;;12.90;99.90;;;;;;5271674;28;20046;-73
2023/05/04 05:29:12;;;;;;;32.63;29.92;;;12.80;99.90;;;;;;5289920;28;20015;-72
2023/05/04 05:31:43;;;;;;;32.00;29.33;;;13.00;99.90;;;;;;5289481;28;20035;-72
2023/05/04 05:34:15;;;;;;;30.77;28.25;;;12.90;99.90;;;;;;5271420;28;20023;-73
2023/05/04 05:36:47;;;;;;;31.98;29.33;;;12.90;99.90;;;;;;5289826;28;20057;-73
2023/05/04 05:39:18;;;;;;;30.42;27.83;;;12.90;99.90;;;;;;5289753;28;20024;-73
2023/05/04 05:41:48;;;;;;;32.10;29.50;;;13.00;99.90;;;;;;5289617;28;20024;-73
2023/05/04 05:44:19;;;;;;;28.85;26.38;;;13.00;99.90;;;;;;5288945;28;20042;-73
2023/05/04 05:46:50;;;;;;;29.05;26.52;;;12.90;99.90;;;;;;5289457;28;20047;-73
2023/05/04 05:49:21;;;;;;;30.13;27.65;;;13.00;99.90;;;;;;5271529;28;20020;-73
2023/05/04 05:51:51;;;;;;;32.38;29.48;;;13.00;99.90;;;;;;5289479;28;20035;-73
2023/05/04 05:54:22;;;;;;;30.95;28.27;;;13.00;99.90;;;;;;5289167;28;20074;-72
2023/05/04 05:56:53;;;;;;;30.95;27.92;;;13.10;99.90;;;;;;5289015;28;20103;-72
2023/05/04 05:59:24;;;;;;;33.28;30.20;;;13.20;99.90;;;;;;5289415;28;20032;-73
2023/05/04 06:01:55;;;;;;;32.22;29.42;;;13.20;99.90;;;;;;5289242;28;20015;-71
2023/05/04 06:04:25;;;;;;;32.75;29.73;;;13.20;99.90;;;;;;5289145;28;20067;-73
2023/05/04 06:06:56;;;;;;;34.28;31.27;;;13.40;99.90;;;;;;5288962;28;20032;-73
2023/05/04 06:09:27;;;;;;;33.50;30.33;;;13.40;99.90;;;;;;5288658;28;20467;-73
2023/05/04 06:11:58;;;;;;;32.28;29.17;;;13.50;99.90;;;;;;5288896;28;20742;-72
2023/05/04 06:14:29;;;;;;;32.67;29.88;;;13.40;99.90;;;;;;5270668;28;20059;-73
2023/05/04 06:17:00;;;;;;;30.52;27.98;;;13.50;99.90;;;;;;5288942;28;20407;-73
2023/05/04 06:19:35;;;;;;;32.17;29.42;;;13.50;99.90;;;;;;5270571;28;20024;-73
2023/05/04 06:22:05;;;;;;;33.13;30.00;;;13.50;99.90;;;;;;5288951;28;20019;-72
2023/05/04 06:24:36;;;;;;;30.88;28.08;;;13.60;99.90;;;;;;5288910;28;20036;-73
2023/05/04 06:27:07;;;;;;;32.25;29.52;;;13.50;99.90;;;;;;5288648;28;20036;-73
2023/05/04 06:29:40;;;;;;;30.85;28.00;;;13.80;99.90;;;;;;5288853;28;20038;-73
2023/05/04 06:32:10;;;;;;;30.63;28.02;;;14.00;99.90;;;;;;5288628;28;20024;-73
2023/05/04 06:34:41;;;;;;;26.95;24.15;;;14.20;99.90;;;;;;5288650;28;20398;-73
2023/05/04 06:37:12;;;;;;;27.13;24.63;;;14.30;99.90;;;;;;5288890;28;20380;-73
2023/05/04 06:39:43;;;;;;;28.13;25.65;;;14.10;99.90;;;;;;5288650;28;20107;-73
2023/05/04 06:42:14;;;;;;;28.67;26.25;;;14.20;99.90;;;;;;5288475;28;20020;-73
2023/05/04 06:44:44;;;;;;;26.60;24.25;;;14.20;99.90;;;;;;5288311;28;20052;-73
2023/05/04 06:47:15;;;;;;;26.88;24.30;;;14.20;99.90;;;;;;5270119;28;20024;-73
2023/05/04 06:49:46;;;;;;;28.13;25.63;;;14.20;99.90;;;;;;5270342;28;20035;-73
2023/05/04 06:52:17;;;;;;;28.98;26.08;;;14.20;99.90;;;;;;5288480;28;20035;-72
2023/05/04 06:54:47;;;;;;;27.10;24.60;;;14.30;99.90;;;;;;5288160;28;20039;-73
2023/05/04 06:57:18;;;;;;;29.00;26.40;;;14.20;99.90;;;;;;5270158;28;20032;-73
2023/05/04 06:59:51;;;;;;;29.95;27.45;;;14.00;99.90;;;;;;5270310;28;20032;-73
2023/05/04 07:02:22;;;;;;;27.08;24.90;;;14.20;99.90;;;;;;5270247;28;20028;-72
2023/05/04 07:04:53;;;;;;;29.75;27.35;;;14.00;99.90;;;;;;5288237;28;20065;-73
2023/05/04 07:07:24;;;;;;;29.70;26.95;;;14.20;99.90;;;;;;5270167;28;20070;-73
2023/05/04 07:09:55;;;;;;;29.40;26.48;;;14.30;99.90;;;;;;5288486;28;20058;-73
2023/05/04 07:12:26;;;;;;;27.98;25.67;;;14.30;99.90;;;;;;5288272;28;20038;-73
2023/05/04 07:14:57;;;;;;;27.45;25.00;;;14.30;99.90;;;;;;5288408;28;20042;-73
2023/05/04 07:17:31;;;;;;;26.23;23.98;;;14.30;99.90;;;;;;5288175;28;20055;-73
2023/05/04 07:20:03;;;;;;;29.73;27.33;;;14.50;99.90;;;;;;5288139;28;20073;-73
2023/05/04 07:22:34;;;;;;;29.65;26.95;;;14.40;99.90;;;;;;5291406;28;20027;-73
2023/05/04 07:25:05;;;;;;;27.90;25.75;;;14.40;99.90;;;;;;5292044;28;20050;-73
2023/05/04 07:27:36;;;;;;;30.42;27.38;;;14.50;99.90;;;;;;5292414;28;20626;-73
2023/05/04 07:30:07;;;;;;;30.63;27.92;;;14.50;99.90;;;;;;5292395;28;20023;-73
2023/05/04 07:32:38;;;;;;;28.90;26.27;;;14.60;99.90;;;;;;5274291;28;20122;-73
2023/05/04 07:35:09;;;;;;;28.85;26.45;;;14.40;99.90;;;;;;5292385;28;20110;-73
2023/05/04 07:37:40;;;;;;;29.73;27.13;;;14.50;99.90;;;;;;5292183;28;20028;-73
2023/05/04 07:40:13;;;;;;;28.25;25.65;;;14.60;99.90;;;;;;5273829;28;20065;-73
2023/05/04 07:42:44;;;;;;;28.00;25.48;;;14.60;99.90;;;;;;5291993;28;20023;-73
2023/05/04 07:45:16;;;;;;;30.25;27.80;;;14.50;99.90;;;;;;5291922;28;20542;-73
2023/05/04 07:47:47;;;;;;;29.33;26.80;;;14.50;99.90;;;;;;5291972;28;20016;-73
2023/05/04 07:50:18;;;;;;;31.50;28.50;;;14.50;99.90;;;;;;5291593;28;20038;-73
2023/05/04 07:52:49;;;;;;;31.05;28.13;;;14.50;99.90;;;;;;5273339;28;20550;-73
2023/05/04 07:55:20;;;;;;;31.63;28.75;;;14.30;99.90;;;;;;5273312;28;20062;-73
2023/05/04 07:57:51;;;;;;;29.80;27.05;;;14.40;99.90;;;;;;5291722;28;20103;-73
2023/05/04 08:00:22;;;;;;;31.67;28.95;;;14.40;99.90;;;;;;5291855;28;20032;-73
2023/05/04 08:02:53;;;;;;;29.60;26.70;;;14.50;99.90;;;;;;5291573;28;20457;-73
2023/05/04 08:05:23;;;;;;;27.58;24.85;;;14.50;99.90;;;;;;5291408;28;20092;-72
2023/05/04 08:07:54;;;;;;;29.40;26.60;;;14.40;99.90;;;;;;5291220;28;20044;-73
2023/05/04 08:10:26;;;;;;;27.23;24.63;;;14.50;99.90;;;;;;5291354;28;20102;-73
2023/05/04 08:12:57;;;;;;;30.67;28.17;;;14.70;99.90;;;;;;5291556;28;20696;-73
2023/05/04 08:15:28;;;;;;;28.52;26.05;;;14.70;99.90;;;;;;5291506;28;20024;-73
2023/05/04 08:17:59;;;;;;;26.85;24.65;;;14.80;99.90;;;;;;5291564;28;20692;-73
2023/05/04 08:20:30;;;;;;;26.25;23.95;;;14.70;99.90;;;;;;5291380;28;20028;-73
2023/05/04 08:23:02;;;;;;;27.20;24.80;;;14.90;99.90;;;;;;5291289;28;20414;-73
2023/05/04 08:25:33;;;;;;;23.75;21.60;;;14.80;99.90;;;;;;5291136;28;20032;-72
2023/05/04 08:28:05;;;;;;;24.85;22.85;;;14.70;99.90;;;;;;5291331;28;20032;-73
2023/05/04 08:30:37;;;;;;;24.98;23.15;;;14.80;99.90;;;;;;5272855;28;20034;-71
2023/05/04 08:33:08;;;;;;;25.00;22.90;;;14.80;99.90;;;;;;5272154;28;20031;-71
2023/05/04 08:35:39;;;;;;;23.15;21.40;;;14.80;99.90;;;;;;5291180;28;20089;-71
2023/05/04 08:38:10;;;;;;;26.48;24.38;;;14.80;99.90;;;;;;5291262;28;20451;-71
2023/05/04 08:40:44;;;;;;;26.52;24.25;;;15.00;99.90;;;;;;5290994;28;20027;-71
2023/05/04 08:43:15;;;;;;;25.13;23.23;;;15.20;99.90;;;;;;5290884;28;20031;-71
2023/05/04 08:45:46;;;;;;;24.65;22.75;;;15.10;99.90;;;;;;5290709;28;20482;-71
2023/05/04 08:48:17;;;;;;;24.15;22.05;;;15.00;99.90;;;;;;5290814;28;20536;-71
2023/05/04 08:50:48;;;;;;;24.17;22.33;;;15.20;99.90;;;;;;5290888;28;20024;-71
2023/05/04 08:53:21;;;;;;;27.92;25.63;;;15.30;99.90;;;;;;5290505;28;20027;-71
2023/05/04 08:55:54;;;;;;;26.27;24.23;;;15.20;99.90;;;;;;5290597;28;20039;-71
2023/05/04 08:58:26;;;;;;;26.02;23.83;;;15.40;99.90;;;;;;5290526;28;20023;-71
2023/05/04 09:00:59;;;;;;;25.50;23.33;;;15.50;99.90;;;;;;5290531;28;20024;-73
2023/05/04 09:03:30;;;;;;;23.63;21.73;;;15.30;99.90;;;;;;5290335;28;20051;-73
2023/05/04 09:06:02;;;;;;;22.52;21.02;;;15.30;99.90;;;;;;5290364;28;20078;-72
2023/05/04 09:08:33;;;;;;;23.55;21.73;;;14.80;99.90;;;;;;5290293;28;20027;-73
2023/05/04 09:11:04;;;;;;;24.00;22.10;;;15.10;99.90;;;;;;5290283;28;20042;-73
2023/05/04 09:13:35;;;;;;;21.83;20.23;;;15.50;99.90;;;;;;5290129;28;20015;-73
2023/05/04 09:16:07;;;;;;;21.98;20.27;;;15.80;99.90;;;;;;5290242;28;20076;-73
2023/05/04 09:18:43;;;;;;;21.90;20.30;;;15.50;99.90;;;;;;5290381;28;20102;-71
2023/05/04 09:21:14;;;;;;;21.75;19.88;;;15.50;99.90;;;;;;5290193;28;20038;-71
2023/05/04 09:23:50;;;;;;;20.52;19.00;;;15.70;99.90;;;;;;5289944;28;20482;-71
2023/05/04 09:26:30;;;;;;;20.95;18.77;;;15.50;99.90;;;;;;5289985;28;20040;-71
2023/05/04 09:29:14;;;;;;;21.63;19.92;;;15.60;99.90;;;;;;5290036;28;20016;-71
2023/05/04 09:31:49;;;;;;;21.52;19.80;;;15.40;99.90;;;;;;5271892;28;20070;-71
2023/05/04 09:34:21;;;;;;;20.77;19.17;;;15.40;99.90;;;;;;5289948;28;20032;-71
2023/05/04 09:37:02;;;;;;;20.45;18.75;;;15.50;99.90;;;;;;5271590;28;20024;-71
2023/05/04 09:39:33;;;;;;;20.90;19.30;;;15.60;99.90;;;;;;5289843;28;20023;-71
2023/05/04 09:42:15;;;;;;;21.80;20.10;;;15.70;99.90;;;;;;5271419;28;20032;-71
2023/05/04 09:44:57;;;;;;;21.42;19.73;;;15.70;99.90;;;;;;5288941;28;20031;-71
2023/05/04 09:47:40;;;;;;;21.90;20.25;;;15.50;99.90;;;;;;5271714;28;20069;-71
2023/05/04 09:50:21;;;;;;;22.83;20.98;;;15.70;99.90;;;;;;5271367;28;20115;-71
2023/05/04 09:52:53;;;;;;;23.23;21.25;;;15.80;99.90;;;;;;5289562;28;20481;-70
2023/05/04 09:55:26;;;;;;;23.15;21.25;;;15.60;99.90;;;;;;5289250;28;20142;-71
2023/05/04 09:57:59;;;;;;;21.88;20.17;;;15.90;99.90;;;;;;5289426;28;20065;-71
2023/05/04 10:00:30;;;;;;;22.40;20.73;;;15.90;99.90;;;;;;5289398;28;20024;-71
2023/05/04 10:03:05;;;;;;;22.42;20.70;;;15.90;99.90;;;;;;5289349;28;20031;-71
2023/05/04 10:05:38;;;;;;;24.00;22.10;;;15.90;99.90;;;;;;5289079;28;20032;-71
2023/05/04 10:08:11;;;;;;;25.40;23.25;;;16.10;99.90;;;;;;5270936;28;20032;-71
2023/05/04 10:10:42;;;;;;;25.10;23.23;;;16.40;99.90;;;;;;5289244;28;20028;-71
2023/05/04 10:13:13;;;;;;;28.08;25.75;;;16.30;99.90;;;;;;5288794;28;20024;-71
2023/05/04 10:16:26;;;;;;;25.80;23.73;;;16.10;99.90;;;;;;5270343;28;20357;-71
2023/05/04 10:19:35;;;;;;;25.27;23.40;;;16.50;99.90;;;;;;5270508;28;20051;-71
2023/05/04 10:22:24;;;;;;;24.65;22.92;;;16.20;99.90;;;;;;5186553;28;20468;-71
2023/05/04 10:25:18;;;;;;;23.50;21.52;;;16.10;99.90;;;;;;5284716;28;20039;-71
2023/05/04 10:28:14;;;;;;;24.50;22.40;;;16.30;99.90;;;;;;5288814;28;20085;-72
2023/05/04 10:30:45;;;;;;;24.35;22.42;;;16.50;99.90;;;;;;5270548;28;20031;-71
2023/05/04 10:33:16;;;;;;;25.52;23.42;;;16.20;99.90;;;;;;5288554;28;20022;-71
2023/05/04 10:35:53;;;;;;;26.70;24.58;;;16.20;99.90;;;;;;5270457;28;20386;-71
2023/05/04 10:38:34;;;;;;;26.92;24.88;;;16.50;99.90;;;;;;5288838;28;20008;-71
2023/05/04 10:41:18;;;;;;;28.08;25.92;;;16.10;99.90;;;;;;5288762;28;20027;-71
2023/05/04 10:43:52;;;;;;;27.23;25.05;;;16.50;99.90;;;;;;5288795;28;20036;-70
2023/05/04 10:46:23;;;;;;;29.20;26.90;;;16.60;99.90;;;;;;5270424;28;20039;-71
2023/05/04 10:48:54;;;;;;;29.60;27.33;;;16.80;99.90;;;;;;5288656;28;20080;-71
2023/05/04 10:51:26;;;;;;;29.60;27.30;;;16.70;99.90;;;;;;5288906;28;20480;-71
2023/05/04 10:54:00;;;;;;;27.65;25.58;;;16.90;99.90;;;;;;5288789;28;20487;-71
2023/05/04 10:56:30;;;;;;;28.00;26.00;;;16.70;99.90;;;;;;5288352;28;20502;-71
2023/05/04 10:59:08;;;;;;;27.85;25.63;;;16.50;99.90;;;;;;5288713;28;20035;-72
2023/05/04 11:01:46;;;;;;;29.83;27.42;;;16.70;99.90;;;;;;5288484;28;20019;-71
2023/05/04 11:04:21;;;;;;;28.88;26.73;;;17.00;99.90;;;;;;5288371;28;20027;-71
2023/05/04 11:06:56;;;;;;;26.23;24.42;;;16.90;99.90;;;;;;5269975;28;20036;-71
2023/05/04 11:09:28;;;;;;;27.38;25.15;;;16.70;99.90;;;;;;5288338;28;20086;-71
2023/05/04 11:11:59;;;;;;;27.30;25.38;;;16.80;99.90;;;;;;5270048;28;20023;-71
2023/05/04 11:14:30;;;;;;;27.63;25.13;;;17.10;99.90;;;;;;5288311;28;20030;-72
2023/05/04 11:17:08;;;;;;;28.17;25.98;;;17.00;99.90;;;;;;5288378;28;20020;-71
2023/05/04 11:19:50;;;;;;;27.45;25.40;;;17.50;99.90;;;;;;5288388;28;20034;-71
2023/05/04 11:22:21;;;;;;;26.20;24.17;;;17.00;99.90;;;;;;5288217;28;20026;-71
2023/05/04 11:24:52;;;;;;;25.65;23.67;;;17.00;99.90;;;;;;5287789;28;20085;-71
2023/05/04 11:27:26;;;;;;;28.33;25.92;;;16.70;99.90;;;;;;5288122;28;20024;-71
2023/05/04 11:29:59;;;;;;;27.98;25.90;;;17.00;99.90;;;;;;5288229;28;20018;-71
2023/05/04 11:32:37;;;;;;;26.05;23.95;;;17.10;99.90;;;;;;5288039;28;20034;-71
2023/05/04 11:35:13;;;;;;;25.95;23.90;;;17.10;99.90;;;;;;5269709;28;20131;-71
2023/05/04 11:37:45;;;;;;;25.90;23.80;;;17.20;99.90;;;;;;5288228;28;20548;-71
2023/05/04 11:40:24;;;;;;;24.80;22.83;;;16.80;99.90;;;;;;5288331;28;20024;-71
2023/05/04 11:42:57;;;;;;;29.80;27.40;;;17.20;99.90;;;;;;5288125;28;20410;-71
2023/05/04 11:45:30;;;;;;;28.77;26.70;;;17.30;99.90;;;;;;5287941;28;20421;-71
2023/05/04 11:48:01;;;;;;;26.77;24.80;;;16.50;99.90;;;;;;5288271;28;20099;-71
2023/05/04 11:50:32;;;;;;;24.45;22.75;;;16.70;99.90;;;;;;5288027;28;20088;-71
2023/05/04 11:53:11;;;;;;;23.48;21.73;;;17.20;99.90;;;;;;5288096;28;20020;-71
2023/05/04 11:55:41;;;;;;;23.45;21.58;;;17.30;99.90;;;;;;5288186;28;20142;-71
2023/05/04 11:58:12;;;;;;;24.85;22.98;;;17.30;99.90;;;;;;5288249;28;20102;-71
2023/05/04 12:00:45;;;;;;;24.45;22.67;;;17.70;99.90;;;;;;5288240;28;20088;-71
2023/05/04 12:03:24;;;;;;;24.00;22.15;;;17.60;99.90;;;;;;5288449;28;20035;-71
2023/05/04 12:05:56;;;;;;;23.30;21.08;;;17.70;99.90;;;;;;5288311;28;20067;-71
2023/05/04 12:08:30;;;;;;;26.83;24.73;;;17.70;99.90;;;;;;5288944;28;20020;-71
2023/05/04 12:11:27;;;;;;;25.60;23.45;;;17.70;99.90;;;;;;5291689;28;20035;-71
2023/05/04 12:14:08;;;;;;;24.45;22.08;;;17.90;99.90;;;;;;5291544;28;20020;-71
2023/05/04 12:16:41;;;;;;;25.98;23.95;;;17.50;99.90;;;;;;5291512;28;20031;-71
2023/05/04 12:19:12;;;;;;;23.98;22.08;;;17.70;99.90;;;;;;5291701;28;20483;-71
2023/05/04 12:21:50;;;;;;;25.98;23.83;;;17.30;99.90;;;;;;5291903;28;20031;-71
2023/05/04 12:24:22;;;;;;;26.13;23.85;;;18.00;99.90;;;;;;5291346;28;20484;-71
2023/05/04 12:26:53;;;;;;;25.00;22.90;;;18.10;99.90;;;;;;5291323;28;20153;-71
2023/05/04 12:29:24;;;;;;;24.38;22.08;;;17.90;99.90;;;;;;5291636;28;20107;-71
2023/05/04 12:31:55;;;;;;;22.77;20.88;;;17.90;99.90;;;;;;5291472;28;20027;-71
2023/05/04 12:34:25;;;;;;;23.70;21.58;;;17.20;99.90;;;;;;5291254;28;20108;-71
2023/05/04 12:36:57;;;;;;;25.65;23.42;;;17.50;99.90;;;;;;5291284;28;20471;-71
2023/05/04 12:39:30;;;;;;;24.60;22.40;;;17.50;99.90;;;;;;5291235;28;20023;-71
2023/05/04 12:42:03;;;;;;;27.75;25.35;;;17.60;99.90;;;;;;5291088;28;20027;-72
2023/05/04 12:44:33;;;;;;;24.42;22.10;;;17.50;99.90;;;;;;5290946;28;20110;-71
2023/05/04 12:47:05;;;;;;;27.90;25.67;;;17.20;99.90;;;;;;5291164;28;20114;-71
2023/05/04 12:49:36;;;;;;;30.77;28.25;;;17.10;99.90;;;;;;5290954;28;20023;-71
2023/05/04 12:52:07;;;;;;;28.55;26.35;;;17.10;99.90;;;;;;5291012;28;20020;-71
2023/05/04 12:54:38;;;;;;;27.70;25.40;;;16.80;99.90;;;;;;5290523;28;20142;-71